createdAt,value
2019-05-18T00:01:44.166Z,16.80
2019-05-18T00:04:14.309Z,16.80
2019-05-18T00:06:44.649Z,16.70
2019-05-18T00:09:14.762Z,16.70
2019-05-18T00:11:45.107Z,16.70
2019-05-18T00:14:15.208Z,16.70
2019-05-18T00:16:45.385Z,16.70
2019-05-18T00:19:15.519Z,16.60
2019-05-18T00:21:45.684Z,16.60
2019-05-18T00:24:15.743Z,16.60
2019-05-18T00:26:45.912Z,16.50
2019-05-18T00:29:15.945Z,16.50
2019-05-18T00:31:46.027Z,16.60
2019-05-18T00:34:16.653Z,16.50
2019-05-18T00:36:46.701Z,16.50
2019-05-18T00:39:16.773Z,16.50
2019-05-18T00:41:46.801Z,16.40
2019-05-18T00:44:16.939Z,16.40
2019-05-18T00:46:47.317Z,16.40
2019-05-18T00:49:17.388Z,16.40
2019-05-18T00:51:48.470Z,16.40
2019-05-18T00:54:18.777Z,16.30
2019-05-18T00:56:48.912Z,16.30
2019-05-18T00:59:18.954Z,16.30
2019-05-18T01:01:49.095Z,16.30
2019-05-18T01:04:19.219Z,16.30
2019-05-18T01:06:49.311Z,16.30
2019-05-18T01:09:20.515Z,16.30
2019-05-18T01:11:50.603Z,16.20
2019-05-18T01:14:20.717Z,16.20
2019-05-18T01:16:50.747Z,16.20
2019-05-18T01:19:20.897Z,16.20
2019-05-18T01:21:51.048Z,16.20
2019-05-18T01:24:21.213Z,16.10
2019-05-18T01:26:51.269Z,16.10
2019-05-18T01:29:21.345Z,16.10
2019-05-18T01:31:51.407Z,16.10
2019-05-18T01:34:21.435Z,16.10
2019-05-18T01:36:51.837Z,16.00
2019-05-18T01:39:33.375Z,16.00
2019-05-18T01:42:03.699Z,16.00
2019-05-18T01:44:34.065Z,16.00
2019-05-18T01:47:04.413Z,16.00
2019-05-18T01:49:34.557Z,16.00
2019-05-18T01:52:04.624Z,15.90
2019-05-18T01:54:34.817Z,15.90
2019-05-18T01:57:04.959Z,15.90
2019-05-18T01:59:35.009Z,15.90
2019-05-18T02:02:05.241Z,15.90
2019-05-18T02:04:35.435Z,15.90
2019-05-18T02:07:05.499Z,15.80
2019-05-18T02:09:35.566Z,15.80
2019-05-18T02:12:06.021Z,15.80
2019-05-18T02:14:36.213Z,15.80
2019-05-18T02:17:06.333Z,15.80
2019-05-18T02:19:36.659Z,15.80
2019-05-18T02:22:07.030Z,15.70
2019-05-18T02:24:38.640Z,15.70
2019-05-18T02:27:08.716Z,15.70
2019-05-18T02:29:38.861Z,15.70
2019-05-18T02:32:09.478Z,15.70
2019-05-18T02:34:39.605Z,15.60
2019-05-18T02:37:10.464Z,15.60
2019-05-18T02:39:40.620Z,15.60
2019-05-18T02:42:10.723Z,15.70
2019-05-18T02:44:40.941Z,15.60
2019-05-18T02:47:11.077Z,15.60
2019-05-18T02:49:41.580Z,15.60
2019-05-18T02:52:11.722Z,15.50
2019-05-18T02:54:41.999Z,15.50
2019-05-18T02:57:12.028Z,15.50
2019-05-18T02:59:42.181Z,15.50
2019-05-18T03:02:12.344Z,15.50
2019-05-18T03:04:42.436Z,15.50
2019-05-18T03:07:12.475Z,15.50
2019-05-18T03:09:42.514Z,15.40
2019-05-18T03:12:12.586Z,15.40
2019-05-18T03:14:42.755Z,15.40
2019-05-18T03:17:12.874Z,15.40
2019-05-18T03:19:43.311Z,15.40
2019-05-18T03:22:13.421Z,15.40
2019-05-18T03:24:43.559Z,15.40
2019-05-18T03:27:14.016Z,15.30
2019-05-18T03:29:44.149Z,15.30
2019-05-18T03:32:14.345Z,15.30
2019-05-18T03:34:44.675Z,15.30
2019-05-18T03:37:14.758Z,15.30
2019-05-18T03:39:45.065Z,15.30
2019-05-18T03:42:15.111Z,15.30
2019-05-18T03:44:45.613Z,15.30
2019-05-18T03:47:16.629Z,15.20
2019-05-18T03:49:46.748Z,15.20
2019-05-18T03:52:16.797Z,15.20
2019-05-18T03:54:46.925Z,15.20
2019-05-18T03:57:17.062Z,15.20
2019-05-18T03:59:47.128Z,15.20
2019-05-18T04:02:17.188Z,15.20
2019-05-18T04:04:47.316Z,15.20
2019-05-18T04:07:17.411Z,15.20
2019-05-18T04:09:47.779Z,15.20
2019-05-18T04:12:17.815Z,15.20
2019-05-18T04:14:47.965Z,15.20
2019-05-18T04:17:17.979Z,15.20
2019-05-18T04:19:48.087Z,15.10
2019-05-18T04:22:18.414Z,15.10
2019-05-18T04:24:48.568Z,15.10
2019-05-18T04:27:18.785Z,15.10
2019-05-18T04:29:48.987Z,15.10
2019-05-18T04:32:19.023Z,15.10
2019-05-18T04:34:49.051Z,15.10
2019-05-18T04:37:19.117Z,15.10
2019-05-18T04:39:49.245Z,15.10
2019-05-18T04:42:19.363Z,15.10
2019-05-18T04:44:49.793Z,15.10
2019-05-18T04:47:19.929Z,15.10
2019-05-18T04:50:04.358Z,15.10
2019-05-18T04:52:21.723Z,15.10
2019-05-18T04:54:52.072Z,15.10
2019-05-18T04:57:22.180Z,15.10
2019-05-18T04:59:52.263Z,15.10
2019-05-18T05:02:22.291Z,15.10
2019-05-18T05:04:56.427Z,15.10
2019-05-18T05:07:24.699Z,15.10
2019-05-18T05:09:54.825Z,15.10
2019-05-18T05:12:24.912Z,15.00
2019-05-18T05:14:55.054Z,15.00
2019-05-18T05:17:25.183Z,15.10
2019-05-18T05:19:55.322Z,15.10
2019-05-18T05:22:25.362Z,15.10
2019-05-18T05:24:55.670Z,15.10
2019-05-18T05:27:26.436Z,15.10
2019-05-18T05:29:56.537Z,14.80
2019-05-18T05:32:26.688Z,15.10
2019-05-18T05:34:56.800Z,15.10
2019-05-18T05:37:26.851Z,15.10
2019-05-18T05:39:56.923Z,15.10
2019-05-18T05:42:27.056Z,15.10
2019-05-18T05:44:57.183Z,15.10
2019-05-18T05:47:27.268Z,15.10
2019-05-18T05:49:57.407Z,15.20
2019-05-18T05:52:27.574Z,15.20
2019-05-18T05:54:57.640Z,15.20
2019-05-18T05:57:28.283Z,15.20
2019-05-18T05:59:58.601Z,15.20
2019-05-18T06:02:28.719Z,15.20
2019-05-18T06:04:58.848Z,15.20
2019-05-18T06:07:28.903Z,15.30
2019-05-18T06:09:59.098Z,15.30
2019-05-18T06:12:29.304Z,15.30
2019-05-18T06:14:59.737Z,15.30
2019-05-18T06:17:29.881Z,15.30
2019-05-18T06:20:00.027Z,15.40
2019-05-18T06:22:30.045Z,15.40
2019-05-18T06:25:00.449Z,15.40
2019-05-18T06:27:30.820Z,15.50
2019-05-18T06:30:00.863Z,15.50
2019-05-18T06:32:31.053Z,15.60
2019-05-18T06:35:01.129Z,15.60
2019-05-18T06:37:32.216Z,15.60
2019-05-18T06:40:02.390Z,15.70
2019-05-18T06:42:32.462Z,15.70
2019-05-18T06:45:02.527Z,15.80
2019-05-18T06:47:32.565Z,15.80
2019-05-18T06:50:02.939Z,15.80
2019-05-18T06:52:33.079Z,15.80
2019-05-18T06:55:03.480Z,15.90
2019-05-18T06:57:34.575Z,15.90
2019-05-18T07:00:05.395Z,16.00
2019-05-18T07:02:36.831Z,16.00
2019-05-18T07:05:07.308Z,16.10
2019-05-18T07:07:37.466Z,16.10
2019-05-18T07:10:08.487Z,16.10
2019-05-18T07:12:38.542Z,16.20
2019-05-18T07:15:10.424Z,16.20
2019-05-18T07:17:40.554Z,16.30
2019-05-18T07:20:11.031Z,16.30
2019-05-18T07:22:41.423Z,16.40
2019-05-18T07:25:12.675Z,16.40
2019-05-18T07:27:42.793Z,16.40
2019-05-18T07:30:13.722Z,16.40
2019-05-18T07:32:43.826Z,16.50
2019-05-18T07:35:14.902Z,16.50
2019-05-18T07:37:45.237Z,16.60
2019-05-18T07:40:15.257Z,16.60
2019-05-18T07:42:45.478Z,16.60
2019-05-18T07:45:15.888Z,16.70
2019-05-18T07:47:46.035Z,16.70
2019-05-18T07:50:17.081Z,16.70
2019-05-18T07:52:47.149Z,16.80
2019-05-18T07:55:17.287Z,16.80
2019-05-18T07:57:47.481Z,16.80
2019-05-18T08:00:17.654Z,16.90
2019-05-18T08:02:47.744Z,16.90
2019-05-18T08:05:17.928Z,16.90
2019-05-18T08:07:48.068Z,16.90
2019-05-18T08:10:22.678Z,16.90
2019-05-18T08:12:52.809Z,16.90
2019-05-18T08:15:22.981Z,16.90
2019-05-18T08:17:53.181Z,17.00
2019-05-18T08:20:27.078Z,17.00
2019-05-18T08:22:57.338Z,17.10
2019-05-18T08:25:27.386Z,17.10
2019-05-18T08:27:57.606Z,17.20
2019-05-18T08:30:27.874Z,17.30
2019-05-18T08:32:59.007Z,17.20
2019-05-18T08:35:29.432Z,17.20
2019-05-18T08:38:00.112Z,17.30
2019-05-18T08:40:30.345Z,17.30
2019-05-18T08:43:00.833Z,17.30
2019-05-18T08:45:31.025Z,17.40
2019-05-18T08:48:01.648Z,17.50
2019-05-18T08:50:31.872Z,17.50
2019-05-18T08:53:02.120Z,17.50
2019-05-18T08:55:32.349Z,17.50
2019-05-18T08:58:02.558Z,17.50
2019-05-18T09:00:32.870Z,17.50
2019-05-18T09:03:03.182Z,17.50
2019-05-18T09:05:33.581Z,17.60
2019-05-18T09:08:04.147Z,17.60
2019-05-18T09:10:34.358Z,17.60
2019-05-18T09:13:04.901Z,17.70
2019-05-18T09:15:35.141Z,17.80
2019-05-18T09:18:05.342Z,17.80
2019-05-18T09:20:35.487Z,17.80
2019-05-18T09:23:05.747Z,17.80
2019-05-18T09:25:36.035Z,17.80
2019-05-18T09:28:06.526Z,17.90
2019-05-18T09:30:36.738Z,17.90
2019-05-18T09:33:06.873Z,17.90
2019-05-18T09:35:37.196Z,18.00
2019-05-18T09:38:07.280Z,18.00
2019-05-18T09:40:37.379Z,18.00
2019-05-18T09:43:07.547Z,18.00
2019-05-18T09:45:37.878Z,18.00
2019-05-18T09:48:08.401Z,18.00
2019-05-18T09:50:38.924Z,18.10
2019-05-18T09:53:09.246Z,18.10
2019-05-18T09:55:39.287Z,18.10
2019-05-18T09:58:09.668Z,18.20
2019-05-18T10:00:39.762Z,18.20
2019-05-18T10:03:11.388Z,18.20
2019-05-18T10:05:41.506Z,18.20
2019-05-18T10:08:11.645Z,18.20
2019-05-18T10:10:41.973Z,18.20
2019-05-18T10:13:12.036Z,18.30
2019-05-18T10:15:42.167Z,18.30
2019-05-18T10:18:12.205Z,18.40
2019-05-18T10:20:42.272Z,18.40
2019-05-18T10:23:13.959Z,18.40
2019-05-18T10:25:44.487Z,18.50
2019-05-18T10:28:14.911Z,18.50
2019-05-18T10:30:45.358Z,18.50
2019-05-18T10:33:15.789Z,18.60
2019-05-18T10:35:45.909Z,18.60
2019-05-18T10:38:16.077Z,18.70
2019-05-18T10:40:46.217Z,18.70
2019-05-18T10:43:16.466Z,18.70
2019-05-18T10:45:46.583Z,18.70
2019-05-18T10:48:16.803Z,18.70
2019-05-18T10:50:46.935Z,18.70
2019-05-18T10:53:28.310Z,18.70
2019-05-18T10:55:48.839Z,18.70
2019-05-18T10:58:18.893Z,18.80
2019-05-18T11:00:49.362Z,18.80
2019-05-18T11:03:20.392Z,18.80
2019-05-18T11:05:50.509Z,18.90
2019-05-18T11:08:20.652Z,18.90
2019-05-18T11:10:50.713Z,18.90
2019-05-18T11:13:20.842Z,19.00
2019-05-18T11:15:50.957Z,19.00
2019-05-18T11:18:21.035Z,19.00
2019-05-18T11:20:51.075Z,19.10
2019-05-18T11:23:21.229Z,19.10
2019-05-18T11:25:51.317Z,19.10
2019-05-18T11:28:21.450Z,19.10
2019-05-18T11:30:51.568Z,19.20
2019-05-18T11:33:21.736Z,19.20
2019-05-18T11:35:52.114Z,19.20
2019-05-18T11:38:22.261Z,19.20
2019-05-18T11:40:52.625Z,19.20
2019-05-18T11:43:22.679Z,19.20
2019-05-18T11:45:52.726Z,19.20
2019-05-18T11:48:22.827Z,19.20
2019-05-18T11:50:52.844Z,19.20
2019-05-18T11:53:23.304Z,19.20
2019-05-18T11:55:53.424Z,19.30
2019-05-18T11:58:23.573Z,19.30
2019-05-18T12:00:53.878Z,19.30
2019-05-18T12:03:25.179Z,19.20
2019-05-18T12:05:55.234Z,19.30
2019-05-18T12:08:25.290Z,19.20
2019-05-18T12:10:56.308Z,19.20
2019-05-18T12:13:26.654Z,19.30
2019-05-18T12:15:56.700Z,19.30
2019-05-18T12:18:26.768Z,19.30
2019-05-18T12:20:56.809Z,19.30
2019-05-18T12:23:27.640Z,19.20
2019-05-18T12:25:57.791Z,19.30
2019-05-18T12:28:28.047Z,19.20
2019-05-18T12:31:01.976Z,19.30
2019-05-18T12:33:30.217Z,19.30
2019-05-18T12:36:00.246Z,19.30
2019-05-18T12:38:30.602Z,19.30
2019-05-18T12:41:01.029Z,19.30
2019-05-18T12:43:31.468Z,19.30
2019-05-18T12:46:01.590Z,19.30
2019-05-18T12:48:31.737Z,19.30
2019-05-18T12:51:01.790Z,19.30
2019-05-18T12:53:31.856Z,19.30
2019-05-18T12:56:01.936Z,19.40
2019-05-18T12:58:32.064Z,19.40
2019-05-18T13:01:02.161Z,19.40
2019-05-18T13:03:32.322Z,19.40
2019-05-18T13:06:04.479Z,19.40
2019-05-18T13:08:35.012Z,19.40
2019-05-18T13:11:05.152Z,19.40
2019-05-18T13:13:35.285Z,19.40
2019-05-18T13:16:05.336Z,19.50
2019-05-18T13:18:35.521Z,19.50
2019-05-18T13:21:05.681Z,19.50
2019-05-18T13:23:35.771Z,19.50
2019-05-18T13:26:06.192Z,19.50
2019-05-18T13:28:36.254Z,19.50
2019-05-18T13:31:06.895Z,19.50
2019-05-18T13:33:36.926Z,19.60
2019-05-18T13:36:07.638Z,19.60
2019-05-18T13:38:38.642Z,19.60
2019-05-18T13:41:08.679Z,19.60
2019-05-18T13:43:38.710Z,19.60
2019-05-18T13:46:10.391Z,19.60
2019-05-18T13:48:40.442Z,19.60
2019-05-18T13:51:10.822Z,19.70
2019-05-18T13:53:40.906Z,19.70
2019-05-18T13:56:10.948Z,19.70
2019-05-18T13:58:41.041Z,19.70
2019-05-18T14:01:11.472Z,19.70
2019-05-18T14:03:41.546Z,19.70
2019-05-18T14:06:11.605Z,19.70
2019-05-18T14:08:41.660Z,19.70
2019-05-18T14:11:13.101Z,19.70
2019-05-18T14:13:43.206Z,19.70
2019-05-18T14:16:13.222Z,19.70
2019-05-18T14:18:43.381Z,19.70
2019-05-18T14:21:14.592Z,19.70
2019-05-18T14:23:44.738Z,19.80
2019-05-18T14:26:14.763Z,19.80
2019-05-18T14:28:44.924Z,19.80
2019-05-18T14:31:15.047Z,19.80
2019-05-18T14:33:45.186Z,19.80
2019-05-18T14:36:15.286Z,19.80
2019-05-18T14:38:45.358Z,19.80
2019-05-18T14:41:15.564Z,19.80
2019-05-18T14:43:45.618Z,19.80
2019-05-18T14:46:15.676Z,19.80
2019-05-18T14:48:46.118Z,19.80
2019-05-18T14:51:16.199Z,19.80
2019-05-18T14:53:46.576Z,19.80
2019-05-18T14:56:16.604Z,19.80
2019-05-18T14:58:46.998Z,19.90
2019-05-18T15:01:17.130Z,19.90
2019-05-18T15:03:47.165Z,19.90
2019-05-18T15:06:17.318Z,19.90
2019-05-18T15:08:47.368Z,19.90
2019-05-18T15:11:17.498Z,19.90
2019-05-18T15:13:47.540Z,19.90
2019-05-18T15:16:17.743Z,19.90
2019-05-18T15:18:47.827Z,19.90
2019-05-18T15:21:17.940Z,20.00
2019-05-18T15:23:48.377Z,20.00
2019-05-18T15:26:18.454Z,20.00
2019-05-18T15:28:48.544Z,20.10
2019-05-18T15:31:18.664Z,20.10
2019-05-18T15:33:49.145Z,20.10
2019-05-18T15:36:19.298Z,20.10
2019-05-18T15:38:49.848Z,20.10
2019-05-18T15:41:20.479Z,20.10
2019-05-18T15:43:50.780Z,20.10
2019-05-18T15:46:20.932Z,20.20
2019-05-18T15:48:51.486Z,20.20
2019-05-18T15:51:22.975Z,20.20
2019-05-18T15:53:53.208Z,20.20
2019-05-18T15:56:23.246Z,20.20
2019-05-18T15:58:53.342Z,20.20
2019-05-18T16:01:23.379Z,20.20
2019-05-18T16:03:53.711Z,20.20
2019-05-18T16:06:23.784Z,20.20
2019-05-18T16:08:53.908Z,20.20
2019-05-18T16:11:24.414Z,20.20
2019-05-18T16:13:54.772Z,20.20
2019-05-18T16:16:24.809Z,20.30
2019-05-18T16:18:54.877Z,20.20
2019-05-18T16:21:24.919Z,20.20
2019-05-18T16:23:55.258Z,20.20
2019-05-18T16:26:25.410Z,20.20
2019-05-18T16:28:55.785Z,20.30
2019-05-18T16:31:25.810Z,20.30
2019-05-18T16:33:55.904Z,20.30
2019-05-18T16:36:25.940Z,20.30
2019-05-18T16:38:56.460Z,20.30
2019-05-18T16:41:26.575Z,20.30
2019-05-18T16:43:56.643Z,20.30
2019-05-18T16:46:27.001Z,20.20
2019-05-18T16:48:57.078Z,20.20
2019-05-18T16:51:27.104Z,20.30
2019-05-18T16:53:57.494Z,20.30
2019-05-18T16:56:35.140Z,20.30
2019-05-18T16:59:00.177Z,20.30
2019-05-18T17:01:30.241Z,20.30
2019-05-18T17:04:01.482Z,20.30
2019-05-18T17:06:31.577Z,20.30
2019-05-18T17:09:01.623Z,20.30
2019-05-18T17:11:33.350Z,20.30
2019-05-18T17:14:03.606Z,20.30
2019-05-18T17:16:33.640Z,20.30
2019-05-18T17:19:03.740Z,20.30
2019-05-18T17:21:33.867Z,20.30
2019-05-18T17:24:03.922Z,20.30
2019-05-18T17:26:34.048Z,20.30
2019-05-18T17:29:04.581Z,20.30
2019-05-18T17:31:34.701Z,20.30
2019-05-18T17:34:04.806Z,20.30
2019-05-18T17:36:35.286Z,20.40
2019-05-18T17:39:07.333Z,20.30
2019-05-18T17:41:37.834Z,20.30
2019-05-18T17:44:08.947Z,20.20
2019-05-18T17:46:39.113Z,20.20
2019-05-18T17:49:24.628Z,20.30
2019-05-18T17:51:41.434Z,20.30
2019-05-18T17:54:11.849Z,20.20
2019-05-18T17:56:42.247Z,20.30
2019-05-18T17:59:12.272Z,20.30
2019-05-18T18:01:42.327Z,20.30
2019-05-18T18:04:12.740Z,20.40
2019-05-18T18:06:42.844Z,20.40
2019-05-18T18:09:12.867Z,20.40
2019-05-18T18:11:42.924Z,20.40
2019-05-18T18:14:12.953Z,20.50
2019-05-18T18:16:43.003Z,20.40
2019-05-18T18:19:13.769Z,20.40
2019-05-18T18:21:43.877Z,20.40
2019-05-18T18:24:14.025Z,20.40
2019-05-18T18:26:44.599Z,20.40
2019-05-18T18:29:14.741Z,20.50
2019-05-18T18:31:44.813Z,20.50
2019-05-18T18:34:15.255Z,20.40
2019-05-18T18:36:45.802Z,20.40
2019-05-18T18:39:16.432Z,20.40
2019-05-18T18:41:46.660Z,20.40
2019-05-18T18:44:17.154Z,20.30
2019-05-18T18:46:47.221Z,20.30
2019-05-18T18:49:17.353Z,20.30
2019-05-18T18:51:48.054Z,20.30
2019-05-18T18:54:18.456Z,20.20
2019-05-18T18:56:48.515Z,20.20
2019-05-18T18:59:18.583Z,20.20
2019-05-18T19:01:49.038Z,20.20
2019-05-18T19:04:19.421Z,20.20
2019-05-18T19:06:49.905Z,20.10
2019-05-18T19:09:20.364Z,20.10
2019-05-18T19:11:50.530Z,20.10
2019-05-18T19:14:20.610Z,20.10
2019-05-18T19:16:50.803Z,20.10
2019-05-18T19:19:21.172Z,20.10
2019-05-18T19:21:51.230Z,20.10
2019-05-18T19:24:24.553Z,20.10
2019-05-18T19:26:54.748Z,20.00
2019-05-18T19:29:24.801Z,20.00
2019-05-18T19:31:54.948Z,20.00
2019-05-18T19:34:25.154Z,20.00
2019-05-18T19:36:55.403Z,19.90
2019-05-18T19:39:25.549Z,19.90
2019-05-18T19:41:55.610Z,19.90
2019-05-18T19:44:25.759Z,19.90
2019-05-18T19:46:57.549Z,19.80
2019-05-18T19:49:27.683Z,19.80
2019-05-18T19:51:57.882Z,19.80
2019-05-18T19:54:28.359Z,19.70
2019-05-18T19:56:58.503Z,19.80
2019-05-18T19:59:28.587Z,19.70
2019-05-18T20:01:58.656Z,19.70
2019-05-18T20:04:28.784Z,19.70
2019-05-18T20:06:58.932Z,19.60
2019-05-18T20:09:28.942Z,19.60
2019-05-18T20:11:59.026Z,19.60
2019-05-18T20:14:29.160Z,19.50
2019-05-18T20:16:59.624Z,19.50
2019-05-18T20:19:38.651Z,19.50
2019-05-18T20:22:02.906Z,19.50
2019-05-18T20:24:33.389Z,19.40
2019-05-18T20:27:03.533Z,19.40
2019-05-18T20:29:33.640Z,19.40
2019-05-18T20:32:03.682Z,19.40
2019-05-18T20:34:33.767Z,19.40
2019-05-18T20:37:03.982Z,19.30
2019-05-18T20:39:34.730Z,19.30
2019-05-18T20:42:04.846Z,19.30
2019-05-18T20:44:35.165Z,19.30
2019-05-18T20:47:05.248Z,19.30
2019-05-18T20:49:35.552Z,19.20
2019-05-18T20:52:05.671Z,19.20
2019-05-18T20:54:35.709Z,19.20
2019-05-18T20:57:05.750Z,19.20
2019-05-18T20:59:35.855Z,19.10
2019-05-18T21:02:05.990Z,19.10
2019-05-18T21:04:36.142Z,19.10
2019-05-18T21:07:06.192Z,19.10
2019-05-18T21:09:36.275Z,19.00
2019-05-18T21:12:06.618Z,19.00
2019-05-18T21:14:37.485Z,19.00
2019-05-18T21:17:07.518Z,19.00
2019-05-18T21:19:37.718Z,18.90
2019-05-18T21:22:07.778Z,18.90
2019-05-18T21:24:38.266Z,18.90
2019-05-18T21:27:08.658Z,18.90
2019-05-18T21:29:39.114Z,18.90
2019-05-18T21:32:09.568Z,18.80
2019-05-18T21:34:39.711Z,18.80
2019-05-18T21:37:10.213Z,18.80
2019-05-18T21:39:40.375Z,18.70
2019-05-18T21:42:11.179Z,18.70
2019-05-18T21:44:41.442Z,18.70
2019-05-18T21:47:11.569Z,18.70
2019-05-18T21:49:41.668Z,18.70
2019-05-18T21:52:11.808Z,18.70
2019-05-18T21:54:42.224Z,18.60
2019-05-18T21:57:12.743Z,18.60
2019-05-18T21:59:42.852Z,18.60
2019-05-18T22:02:13.359Z,18.50
2019-05-18T22:04:43.484Z,18.50
2019-05-18T22:07:13.615Z,18.50
2019-05-18T22:09:44.089Z,18.50
2019-05-18T22:12:14.292Z,18.50
2019-05-18T22:14:44.662Z,18.50
2019-05-18T22:17:14.713Z,18.40
2019-05-18T22:19:45.000Z,18.40
2019-05-18T22:22:15.080Z,18.40
2019-05-18T22:24:45.448Z,18.40
2019-05-18T22:27:15.702Z,18.40
2019-05-18T22:29:45.864Z,18.40
2019-05-18T22:32:17.095Z,18.30
2019-05-18T22:34:47.564Z,18.30
2019-05-18T22:37:17.620Z,18.30
2019-05-18T22:39:47.632Z,18.30
2019-05-18T22:42:17.760Z,18.30
2019-05-18T22:44:47.808Z,18.20
2019-05-18T22:47:17.852Z,18.20
2019-05-18T22:49:47.884Z,18.20
2019-05-18T22:52:17.959Z,18.20
2019-05-18T22:54:47.980Z,18.20
2019-05-18T22:57:18.447Z,18.10
2019-05-18T22:59:48.545Z,18.10
2019-05-18T23:02:18.579Z,18.10
2019-05-18T23:04:48.688Z,18.10
2019-05-18T23:07:18.812Z,18.10
2019-05-18T23:09:48.865Z,18.00
2019-05-18T23:12:18.981Z,18.00
2019-05-18T23:14:49.032Z,18.00
2019-05-18T23:17:19.070Z,18.00
2019-05-18T23:19:49.198Z,18.00
2019-05-18T23:22:19.274Z,18.00
2019-05-18T23:24:49.618Z,17.90
2019-05-18T23:27:19.676Z,17.90
2019-05-18T23:29:50.107Z,17.90
2019-05-18T23:32:20.160Z,17.90
2019-05-18T23:34:50.255Z,17.90
2019-05-18T23:37:20.628Z,17.80
2019-05-18T23:39:51.023Z,17.80
2019-05-18T23:42:21.102Z,17.80
2019-05-18T23:44:51.123Z,17.80
2019-05-18T23:47:21.646Z,17.70
2019-05-18T23:49:51.776Z,17.70
2019-05-18T23:52:21.875Z,17.70
2019-05-18T23:54:51.989Z,17.70
2019-05-18T23:57:22.036Z,17.70
2019-05-18T23:59:52.598Z,17.60
